Time;durP1;ratioP1;P1;durP2;ratioP2;P2;SDS_P1;SDS_P2;PMS_P1;PMS_P2;Temp;Humidity;BMP_temperature;BMP_pressure;BME280_temperature;BME280_humidity;BME280_pressure;Samples;Min_cycle;Max_cycle;Signal;HPM_P1;HPM_P2
2023/08/24 08:48:10;;;;;;;17.02;9.52;;;;;;;21.85;100.00;101203.03;5096108;27;20467;-66
2023/08/24 08:50:36;;;;;;;18.70;10.15;;;;;;;21.94;100.00;101205.97;5090186;28;20036;-68
2023/08/24 08:53:01;;;;;;;12.82;8.95;;;;;;;21.98;100.00;101176.69;5089811;28;20046;-66
2023/08/24 08:55:28;;;;;;;13.05;8.57;;;;;;;22.01;100.00;101178.88;5090017;28;20032;-67
2023/08/24 08:57:58;;;;;;;11.95;8.48;;;;;;;22.07;100.00;101182.38;5090317;28;20505;-66
2023/08/24 09:00:24;;;;;;;16.42;8.88;;;;;;;22.15;100.00;101164.34;5108645;28;20119;-67
2023/08/24 09:02:52;;;;;;;12.13;8.70;;;;;;;22.20;100.00;101161.53;5108315;28;20118;-67
2023/08/24 09:05:19;;;;;;;14.48;8.82;;;;;;;22.25;100.00;101153.19;5104547;28;20028;-68
2023/08/24 09:07:45;;;;;;;14.20;8.73;;;;;;;22.28;100.00;101142.41;5089387;28;20032;-64
2023/08/24 09:10:10;;;;;;;13.57;7.68;;;;;;;22.33;100.00;101141.56;5089274;28;20025;-68
2023/08/24 09:12:35;;;;;;;14.10;8.30;;;;;;;22.42;100.00;101131.50;5089724;28;20028;-68
2023/08/24 09:15:07;;;;;;;14.10;7.88;;;;;;;22.52;100.00;101132.44;5090792;28;20033;-67
2023/08/24 09:17:33;;;;;;;12.65;7.85;;;;;;;22.61;100.00;101122.38;5089692;28;20036;-68
2023/08/24 09:20:00;;;;;;;11.52;7.40;;;;;;;22.62;100.00;101113.81;5089062;28;20679;-66
2023/08/24 09:22:25;;;;;;;12.43;7.35;;;;;;;22.68;100.00;101103.50;5089418;28;20116;-66
2023/08/24 09:24:51;;;;;;;12.48;6.82;;;;;;;22.79;100.00;101102.22;5087356;28;20020;-67
2023/08/24 09:27:21;;;;;;;13.18;8.52;;;;;;;22.84;100.00;101106.81;5089260;28;20056;-68
2023/08/24 09:29:51;;;;;;;18.13;9.07;;;;;;;22.87;100.00;101105.41;5089170;28;20067;-66
2023/08/24 09:32:31;;;;;;;15.15;8.93;;;;;;;22.91;100.00;101114.72;5089039;28;20107;-66
2023/08/24 09:35:08;;;;;;;17.92;9.93;;;;;;;22.93;100.00;101123.50;5088888;28;20040;-68
2023/08/24 09:37:35;;;;;;;22.33;9.80;;;;;;;23.00;100.00;101126.72;5089300;28;20412;-68
2023/08/24 09:40:09;;;;;;;16.30;9.57;;;;;;;23.04;100.00;101140.72;5089047;28;20038;-67
2023/08/24 09:42:42;;;;;;;16.05;9.40;;;;;;;23.06;100.00;101149.53;5094755;28;20119;-66
2023/08/24 09:45:12;;;;;;;16.52;9.15;;;;;;;23.07;100.00;101171.31;5108901;28;20036;-66
2023/08/24 09:47:38;;;;;;;15.27;9.60;;;;;;;23.14;100.00;101168.16;5093708;28;20044;-66
2023/08/24 09:50:04;;;;;;;16.15;8.88;;;;;;;23.18;100.00;101170.03;5087935;28;20028;-66
2023/08/24 09:52:33;;;;;;;10.95;9.18;;;;;;;23.21;100.00;101162.28;5088583;28;20043;-67
2023/08/24 09:55:09;;;;;;;16.67;9.15;;;;;;;23.24;100.00;101161.66;5086143;28;20036;-67
2023/08/24 09:57:40;;;;;;;15.20;9.40;;;;;;;23.30;100.00;101168.75;5085382;28;20042;-67
2023/08/24 10:00:10;;;;;;;13.15;8.65;;;;;;;23.33;100.00;101176.41;5074293;28;20033;-68
2023/08/24 10:02:41;;;;;;;12.05;8.90;;;;;;;23.33;100.00;101173.66;5072890;28;20024;-67
2023/08/24 10:05:08;;;;;;;15.00;8.68;;;;;;;23.37;100.00;101182.97;5074313;28;20430;-69
2023/08/24 10:07:37;;;;;;;12.27;8.45;;;;;;;23.30;100.00;101185.31;5088814;28;20059;-69
2023/08/24 10:10:07;;;;;;;16.80;8.40;;;;;;;23.36;100.00;101192.38;5094445;28;20024;-69
2023/08/24 10:12:43;;;;;;;12.02;7.90;;;;;;;23.31;100.00;101200.72;5073849;28;20032;-72
2023/08/24 10:15:11;;;;;;;12.35;8.07;;;;;;;23.32;100.00;101196.84;5075157;28;20032;-71
2023/08/24 10:17:38;;;;;;;10.80;7.05;;;;;;;23.22;100.00;101200.63;5084950;28;20036;-70
2023/08/24 10:20:06;;;;;;;11.48;6.75;;;;;;;23.29;100.00;101186.41;5094943;28;20115;-69
2023/08/24 10:22:34;;;;;;;11.00;5.85;;;;;;;23.23;100.00;101182.91;5095973;28;20059;-67
2023/08/24 10:24:59;;;;;;;11.90;5.53;;;;;;;23.16;100.00;101188.84;5094290;28;20399;-68
2023/08/24 10:27:27;;;;;;;12.20;5.07;;;;;;;23.15;100.00;101181.66;5094961;28;20024;-67
2023/08/24 10:29:52;;;;;;;12.65;5.60;;;;;;;23.11;100.00;101186.16;5091557;28;20039;-67
2023/08/24 10:32:19;;;;;;;9.73;4.82;;;;;;;23.14;100.00;101195.78;5075479;28;20426;-67
2023/08/24 10:34:45;;;;;;;9.38;4.57;;;;;;;23.17;100.00;101207.06;5074142;28;20097;-68
2023/08/24 10:37:11;;;;;;;6.80;4.28;;;;;;;23.08;100.00;101203.28;5074354;28;20652;-68
2023/08/24 10:39:43;;;;;;;8.13;4.28;;;;;;;23.12;100.00;101204.34;5074625;28;20541;-67
2023/08/24 10:42:10;;;;;;;7.82;3.88;;;;;;;23.14;100.00;101217.84;5074290;28;20033;-68
2023/08/24 10:44:39;;;;;;;12.63;4.60;;;;;;;23.16;100.00;101223.91;5074422;28;20035;-68
2023/08/24 10:47:15;;;;;;;8.63;4.43;;;;;;;23.19;100.00;101226.06;5072345;28;20534;-68
2023/08/24 10:49:42;;;;;;;9.93;4.63;;;;;;;23.15;100.00;101212.03;5074364;28;20086;-68
2023/08/24 10:52:21;;;;;;;10.10;4.68;;;;;;;23.16;100.00;101213.69;5074157;28;20038;-68
2023/08/24 10:54:49;;;;;;;9.88;4.97;;;;;;;23.14;100.00;101213.19;5076917;28;20089;-69
2023/08/24 10:57:43;;;;;;;12.30;4.85;;;;;;;23.16;100.00;101208.16;5091369;28;20032;-66
2023/08/24 11:00:10;;;;;;;15.73;5.72;;;;;;;23.19;100.00;101204.00;5089771;28;20076;-67
2023/08/24 11:02:48;;;;;;;15.25;5.30;;;;;;;23.22;100.00;101191.50;5092254;28;20375;-67
2023/08/24 11:05:24;;;;;;;12.45;5.90;;;;;;;23.25;100.00;101208.31;5092501;28;20036;-67
2023/08/24 11:08:01;;;;;;;17.45;6.00;;;;;;;23.27;100.00;101199.72;5093951;28;20111;-69
2023/08/24 11:10:33;;;;;;;14.93;6.18;;;;;;;23.27;100.00;101196.94;5090145;28;20061;-68
2023/08/24 11:13:05;;;;;;;13.85;6.20;;;;;;;23.29;100.00;101183.66;5083089;28;20040;-68
2023/08/24 11:15:42;;;;;;;9.30;6.25;;;;;;;23.28;100.00;101177.31;5071976;28;20040;-67
2023/08/24 11:18:28;;;;;;;14.95;5.80;;;;;;;23.27;100.00;101161.88;5073905;28;20039;-68
2023/08/24 11:21:05;;;;;;;13.65;6.80;;;;;;;23.21;100.00;101159.50;5073503;28;20050;-68
2023/08/24 11:23:30;;;;;;;17.13;6.13;;;;;;;23.20;100.00;101138.53;5073784;28;20033;-68
2023/08/24 11:25:58;;;;;;;11.73;6.05;;;;;;;23.20;100.00;101133.03;5073302;28;20048;-68
2023/08/24 11:28:26;;;;;;;13.52;5.78;;;;;;;23.18;100.00;101134.13;5085344;28;20483;-68
2023/08/24 11:30:52;;;;;;;14.23;6.70;;;;;;;23.15;100.00;101131.97;5073715;28;20060;-68
2023/08/24 11:33:30;;;;;;;15.68;6.07;;;;;;;23.12;100.00;101135.34;5072243;28;20165;-68
2023/08/24 11:35:56;;;;;;;13.45;5.65;;;;;;;23.07;100.00;101129.91;5073266;28;20108;-68
2023/08/24 11:38:21;;;;;;;8.45;5.25;;;;;;;23.05;100.00;101128.56;5073372;28;20494;-68
2023/08/24 11:40:46;;;;;;;11.25;5.65;;;;;;;23.00;100.00;101129.47;5073405;28;20028;-68
2023/08/24 11:43:12;;;;;;;17.58;5.60;;;;;;;23.01;100.00;101115.38;5097460;28;20042;-67
2023/08/24 11:45:40;;;;;;;9.20;5.93;;;;;;;22.99;100.00;101100.22;5106402;28;20020;-67
2023/08/24 11:48:06;;;;;;;9.82;5.75;;;;;;;23.00;100.00;101079.78;5084288;28;20043;-67
2023/08/24 11:50:34;;;;;;;10.05;5.45;;;;;;;23.03;100.00;101064.56;5093216;28;20039;-67
2023/08/24 11:53:00;;;;;;;11.15;6.20;;;;;;;23.05;100.00;101046.56;5091919;28;20402;-68
2023/08/24 11:55:26;;;;;;;15.77;6.32;;;;;;;23.08;100.00;101043.19;5093469;28;20034;-68
2023/08/24 11:57:51;;;;;;;9.88;5.40;;;;;;;23.11;100.00;101031.56;5091154;28;20024;-68
2023/08/24 12:00:19;;;;;;;12.15;5.63;;;;;;;23.14;100.00;101024.63;5092173;28;20387;-67
2023/08/24 12:02:45;;;;;;;13.30;5.45;;;;;;;23.28;100.00;101002.53;5089644;28;20020;-67
2023/08/24 12:05:21;;;;;;;11.93;5.43;;;;;;;23.38;100.00;101007.06;5092965;28;20529;-68
2023/08/24 12:07:47;;;;;;;11.02;5.30;;;;;;;23.51;100.00;101011.75;5084444;28;20043;-67
2023/08/24 12:10:12;;;;;;;8.10;5.25;;;;;;;23.54;100.00;101033.22;5089560;28;20031;-66
2023/08/24 12:12:38;;;;;;;11.57;5.03;;;;;;;23.63;100.00;101025.03;5092791;28;20119;-70
2023/08/24 12:15:03;;;;;;;12.05;4.72;;;;;;;23.74;100.00;100995.25;5092829;28;20028;-69
2023/08/24 12:17:29;;;;;;;8.93;4.68;;;;;;;23.68;100.00;100983.47;5082644;28;20066;-68
2023/08/24 12:20:06;;;;;;;9.75;4.75;;;;;;;23.66;100.00;100980.22;5082400;28;20024;-65
2023/08/24 12:22:32;;;;;;;9.00;4.60;;;;;;;23.57;100.00;100987.56;5090183;28;20123;-66
2023/08/24 12:24:57;;;;;;;10.75;4.78;;;;;;;23.54;100.00;101000.09;5076757;28;20110;-66
2023/08/24 12:27:24;;;;;;;8.77;4.55;;;;;;;23.57;100.00;101017.97;5076581;28;20031;-66
2023/08/24 12:29:49;;;;;;;10.40;4.53;;;;;;;23.63;100.00;101030.56;5091302;28;20115;-67
2023/08/24 12:32:16;;;;;;;11.30;5.05;;;;;;;23.61;100.00;101044.69;5091751;28;20111;-66
2023/08/24 12:34:45;;;;;;;9.20;4.18;;;;;;;23.68;100.00;101044.25;5090872;28;20077;-67
2023/08/24 12:37:10;;;;;;;5.38;3.67;;;;;;;23.70;100.00;101047.50;5086775;28;20033;-67
2023/08/24 12:39:36;;;;;;;13.73;4.63;;;;;;;23.74;100.00;101048.53;5078867;28;20033;-67
2023/08/24 12:42:02;;;;;;;6.55;4.30;;;;;;;23.80;100.00;101047.28;5070969;28;20025;-68
2023/08/24 12:44:28;;;;;;;9.80;4.40;;;;;;;23.75;100.00;101052.09;5088495;28;20054;-68
2023/08/24 12:46:53;;;;;;;7.88;4.20;;;;;;;23.77;100.00;101058.97;5072121;28;20515;-67
2023/08/24 12:49:18;;;;;;;8.15;4.25;;;;;;;23.74;100.00;101048.53;5072745;28;20430;-66
2023/08/24 12:51:44;;;;;;;9.00;4.00;;;;;;;23.73;100.00;101051.63;5072326;28;20028;-66
2023/08/24 12:54:09;;;;;;;9.93;4.15;;;;;;;23.72;100.00;101048.03;5072234;28;20036;-67
2023/08/24 12:56:35;;;;;;;6.72;3.75;;;;;;;23.68;100.00;101049.78;5072109;28;20039;-67
2023/08/24 12:59:00;;;;;;;7.30;4.00;;;;;;;23.64;100.00;101055.13;5072148;28;20047;-65
2023/08/24 13:01:25;;;;;;;8.43;4.00;;;;;;;23.63;100.00;101052.66;5069999;28;20033;-66
2023/08/24 13:03:51;;;;;;;6.60;3.80;;;;;;;23.65;100.00;101065.03;5072299;28;20031;-67
2023/08/24 13:06:16;;;;;;;9.40;3.95;;;;;;;23.62;100.00;101051.00;5082828;28;20028;-67
2023/08/24 13:08:41;;;;;;;13.25;4.38;;;;;;;23.61;100.00;101043.84;5092128;28;20459;-68
2023/08/24 13:11:07;;;;;;;8.25;4.18;;;;;;;23.57;100.00;101049.19;5091609;28;20380;-66
2023/08/24 13:13:32;;;;;;;6.57;3.92;;;;;;;23.56;100.00;101041.19;5089788;28;20147;-68
2023/08/24 13:15:58;;;;;;;7.50;4.00;;;;;;;23.54;100.00;101044.28;5090106;28;20386;-66
2023/08/24 13:18:23;;;;;;;9.05;3.97;;;;;;;23.55;100.00;101045.88;5088032;28;20036;-67
2023/08/24 13:20:48;;;;;;;8.40;3.90;;;;;;;23.55;100.00;101051.41;5092073;28;20043;-68
2023/08/24 13:23:14;;;;;;;7.30;3.95;;;;;;;23.56;100.00;101041.19;5078494;28;20035;-67
2023/08/24 13:25:40;;;;;;;8.05;3.63;;;;;;;23.52;100.00;101041.81;5070626;28;20114;-69
2023/08/24 13:28:05;;;;;;;12.15;3.80;;;;;;;23.52;100.00;101029.94;5071755;28;20032;-68
2023/08/24 13:30:31;;;;;;;7.40;3.63;;;;;;;23.48;100.00;101024.22;5072442;28;20027;-69
2023/08/24 13:32:56;;;;;;;13.80;3.95;;;;;;;23.49;100.00;101017.59;5072747;28;20036;-67
2023/08/24 13:35:22;;;;;;;9.82;3.30;;;;;;;23.45;100.00;101013.78;5092803;28;20053;-67
2023/08/24 13:37:48;;;;;;;8.15;3.53;;;;;;;23.44;100.00;101006.63;5093909;28;20107;-68
2023/08/24 13:40:13;;;;;;;9.68;3.30;;;;;;;23.47;100.00;101010.72;5091735;28;20452;-67
2023/08/24 13:42:38;;;;;;;9.20;2.97;;;;;;;23.41;100.00;101012.75;5075990;28;20440;-68
2023/08/24 13:45:04;;;;;;;6.70;2.72;;;;;;;23.40;100.00;101016.66;5084237;28;20028;-68
2023/08/24 13:47:30;;;;;;;6.78;3.00;;;;;;;23.36;100.00;101021.97;5099690;28;20093;-69
2023/08/24 13:49:55;;;;;;;7.60;3.03;;;;;;;23.34;100.00;101015.94;5116481;28;20050;-67
2023/08/24 13:52:20;;;;;;;6.68;3.25;;;;;;;23.28;100.00;101019.94;5095793;28;20375;-66
2023/08/24 13:54:46;;;;;;;8.82;3.20;;;;;;;23.27;100.00;101020.25;5090310;28;20030;-66
2023/08/24 13:57:11;;;;;;;9.48;2.90;;;;;;;23.22;100.00;101009.28;5083372;28;20036;-67
2023/08/24 13:59:36;;;;;;;10.50;3.47;;;;;;;23.17;100.00;100999.19;5075041;28;20444;-66
2023/08/24 14:02:03;;;;;;;10.18;3.42;;;;;;;23.14;100.00;100997.03;5092364;28;20034;-68
2023/08/24 14:04:28;;;;;;;9.18;3.33;;;;;;;23.14;100.00;101003.38;5092457;28;20097;-67
2023/08/24 14:06:54;;;;;;;7.80;3.42;;;;;;;23.11;100.00;101006.72;5086220;28;20029;-67
2023/08/24 14:09:19;;;;;;;7.30;3.20;;;;;;;23.09;100.00;101005.38;5083893;28;20103;-66
2023/08/24 14:11:44;;;;;;;7.32;3.03;;;;;;;23.09;100.00;101009.00;5093201;28;20112;-66
2023/08/24 14:14:10;;;;;;;7.75;3.13;;;;;;;23.07;100.00;101002.09;5074388;28;20038;-66
2023/08/24 14:16:35;;;;;;;7.85;2.80;;;;;;;23.05;100.00;100999.66;5075070;28;20029;-66
2023/08/24 14:19:01;;;;;;;8.52;2.88;;;;;;;23.02;100.00;101008.53;5082244;28;20051;-66
2023/08/24 14:21:26;;;;;;;5.68;2.88;;;;;;;22.99;100.00;100992.59;5089446;28;20062;-66
2023/08/24 14:23:51;;;;;;;5.68;2.53;;;;;;;22.96;100.00;100984.94;5087227;28;20036;-67
2023/08/24 14:26:17;;;;;;;9.68;2.92;;;;;;;22.91;100.00;100976.75;5074421;28;20039;-67
2023/08/24 14:28:59;;;;;;;4.55;2.72;;;;;;;22.91;100.00;100982.28;5074557;28;20107;-67
2023/08/24 14:31:27;;;;;;;6.85;2.70;;;;;;;22.86;100.00;100974.91;5081725;28;20496;-65
2023/08/24 14:33:53;;;;;;;6.93;2.80;;;;;;;22.86;100.00;100958.38;5083324;28;20035;-69
2023/08/24 14:36:20;;;;;;;6.32;2.40;;;;;;;22.84;100.00;100960.59;5085821;28;20044;-69
2023/08/24 14:38:45;;;;;;;4.55;2.58;;;;;;;22.86;100.00;100963.03;5091109;28;20181;-69
2023/08/24 14:41:12;;;;;;;4.07;2.75;;;;;;;22.88;100.00;100966.34;5081024;28;20068;-69
2023/08/24 14:43:38;;;;;;;7.72;3.00;;;;;;;22.88;100.00;100960.81;5081499;28;20033;-69
2023/08/24 14:46:04;;;;;;;4.85;2.42;;;;;;;22.89;100.00;100957.75;5091836;28;20044;-68
2023/08/24 14:48:30;;;;;;;6.47;2.70;;;;;;;22.87;100.00;100965.50;5088351;28;20036;-68
2023/08/24 14:50:56;;;;;;;4.15;2.60;;;;;;;22.85;100.00;100970.50;5093127;28;20082;-68
2023/08/24 14:53:23;;;;;;;3.97;2.78;;;;;;;22.85;100.00;100975.22;5084597;28;20032;-66
2023/08/24 14:55:48;;;;;;;9.18;2.60;;;;;;;22.81;100.00;100978.59;5083516;28;20036;-66
2023/08/24 14:58:14;;;;;;;5.43;2.60;;;;;;;22.79;100.00;100986.34;5082639;28;20039;-70
2023/08/24 15:00:40;;;;;;;3.80;2.13;;;;;;;22.73;100.00;100976.53;5084865;28;20498;-68
2023/08/24 15:03:05;;;;;;;5.68;2.70;;;;;;;22.76;100.00;100981.44;5093191;28;20016;-67
2023/08/24 15:05:39;;;;;;;8.07;2.58;;;;;;;22.78;100.00;100968.16;5090045;28;20428;-67
2023/08/24 15:08:08;;;;;;;5.00;2.67;;;;;;;22.73;100.00;100962.72;5079558;28;20029;-71
2023/08/24 15:10:33;;;;;;;5.65;2.38;;;;;;;22.72;100.00;100961.13;5090881;28;20115;-71
2023/08/24 15:12:59;;;;;;;5.07;2.40;;;;;;;22.70;100.00;100960.59;5089463;28;20122;-67
2023/08/24 15:15:24;;;;;;;5.10;2.60;;;;;;;22.67;100.00;100955.69;5090313;28;20028;-67
2023/08/24 15:17:50;;;;;;;6.07;2.60;;;;;;;22.66;100.00;100948.50;5092492;28;20035;-67
2023/08/24 15:20:15;;;;;;;4.60;2.25;;;;;;;22.67;100.00;100952.91;5092677;28;20031;-68
2023/08/24 15:22:41;;;;;;;7.60;2.70;;;;;;;22.66;100.00;100931.97;5092070;28;20467;-68
2023/08/24 15:25:07;;;;;;;5.03;2.40;;;;;;;22.62;100.00;100926.25;5084303;28;20070;-66
2023/08/24 15:27:32;;;;;;;4.40;2.10;;;;;;;22.64;100.00;100915.72;5092127;28;20020;-69
2023/08/24 15:29:58;;;;;;;3.10;2.08;;;;;;;22.62;100.00;100925.44;5092256;28;20065;-70
2023/08/24 15:32:23;;;;;;;5.10;2.20;;;;;;;22.61;100.00;100924.59;5082785;28;20040;-68
2023/08/24 15:34:48;;;;;;;6.78;2.20;;;;;;;22.60;100.00;100922.16;5091822;28;20118;-69
2023/08/24 15:37:14;;;;;;;4.72;2.20;;;;;;;22.59;100.00;100926.88;5096166;28;20028;-68
2023/08/24 15:39:40;;;;;;;4.38;2.28;;;;;;;22.64;100.00;100931.47;5084108;28;20416;-68
2023/08/24 15:42:07;;;;;;;4.78;1.90;;;;;;;22.66;100.00;100937.47;5076706;28;20052;-69
2023/08/24 15:44:33;;;;;;;3.38;1.88;;;;;;;22.70;100.00;100938.50;5076125;28;20066;-69
2023/08/24 15:46:59;;;;;;;8.20;2.40;;;;;;;22.70;100.00;100929.44;5087527;28;20044;-69
2023/08/24 15:49:25;;;;;;;6.97;2.03;;;;;;;22.73;100.00;100926.88;5080940;28;20034;-70
2023/08/24 15:51:51;;;;;;;4.15;2.03;;;;;;;22.84;100.00;100921.97;5091759;28;20024;-69
2023/08/24 15:54:17;;;;;;;3.28;2.10;;;;;;;22.87;100.00;100915.84;5090678;28;20060;-69
2023/08/24 15:56:44;;;;;;;5.93;2.38;;;;;;;22.91;100.00;100907.78;5092317;28;20117;-69
2023/08/24 15:59:10;;;;;;;5.88;2.38;;;;;;;22.95;100.00;100903.28;5072574;28;20032;-69
2023/08/24 16:01:36;;;;;;;5.07;2.30;;;;;;;22.97;100.00;100895.50;5069220;28;20391;-70
